This is the latest recevied weather packets stored in our database for station/object KI8L. If no packets are shown the sender has not sent any weather packets the latest 10 day(s).
| Time | Temp. | Humidity | Pressure | Rain* | Wind** | Luminosity | Snow |
|---|---|---|---|---|---|---|---|
| 1777581227 | 11.67° C | 63% | 1016.6 hPa | 0 mm | - | 522 W/m² | - |
| 1777580926 | 11.67° C | 68% | 1016.7 hPa | 0 mm | - | 506 W/m² | - |
| 1777580621 | 10.56° C | 66% | 1016.6 hPa | 0 mm | - | 556 W/m² | - |
| 1777580317 | 10° C | 69% | 1016.6 hPa | 0 mm | - | 172 W/m² | - |
| 1777580014 | 10° C | 68% | 1016.6 hPa | 0 mm | - | 143 W/m² | - |
| 1777579709 | 10.56° C | 68% | 1016.5 hPa | 0 mm | - | 125 W/m² | - |
| 1777579408 | 11.11° C | 68% | 1016.5 hPa | 0 mm | - | 272 W/m² | - |
| 1777579104 | 10.56° C | 70% | 1016.6 hPa | 0 mm | - | 678 W/m² | - |
| 1777578803 | 10° C | 70% | 1016.8 hPa | 0 mm | - | 559 W/m² | - |
| 1777578500 | 10° C | 68% | 1016.7 hPa | 0 mm | - | 115 W/m² | - |
| 1777578200 | 10° C | 68% | 1016.7 hPa | 0 mm | - | 99 W/m² | - |
| 1777577896 | 11.11° C | 67% | 1016.6 hPa | 0 mm | - | 153 W/m² | - |
| 1777577591 | 11.67° C | 70% | 1016.7 hPa | 0 mm | - | 251 W/m² | - |
| 1777577289 | 10.56° C | 71% | 1016.6 hPa | 0 mm | - | 858 W/m² | - |
| 1777576985 | 10.56° C | 69% | 1016.8 hPa | 0 mm | - | 203 W/m² | - |
| 1777576681 | 10.56° C | 73% | 1016.9 hPa | 0 mm | - | 217 W/m² | - |
| 1777576381 | 11.67° C | 72% | 1016.7 hPa | 0 mm | - | 217 W/m² | - |
| 1777576077 | 11.11° C | 76% | 1016.8 hPa | 0 mm | - | 823 W/m² | - |
| 1777575773 | 10.56° C | 70% | 1016.6 hPa | 0 mm | - | 903 W/m² | - |
| 1777575470 | 10° C | 73% | 1016.9 hPa | 0 mm | - | 279 W/m² | - |
| 1777575165 | 10.56° C | 74% | 1016.9 hPa | 0 mm | - | 200 W/m² | - |
| 1777574861 | 11.11° C | 70% | 1016.8 hPa | 0 mm | - | 254 W/m² | - |
| 1777574559 | 11.11° C | 72% | 1016.8 hPa | 0 mm | - | 619 W/m² | - |
| 1777574255 | 10° C | 79% | 1016.8 hPa | 0 mm | - | 768 W/m² | - |
| 1777573950 | 10.56° C | 79% | 1016.7 hPa | 0 mm | - | 940 W/m² | - |
* Rain latest hour (hover to see other rain measurements)
** Current wind speed in m/s (hover to see current wind gust speed)